sensor_id;sensor_type;location;lat;lon;timestamp;P1;durP1;ratioP1;P2;durP2;ratioP2
33987;SDS011;37428;53.580;-1.666;2022-12-18T00:02:35;17.30;;;6.85;;
33987;SDS011;37428;53.580;-1.666;2022-12-18T00:05:45;10.82;;;6.28;;
33987;SDS011;37428;53.580;-1.666;2022-12-18T00:08:48;14.40;;;7.05;;
33987;SDS011;37428;53.580;-1.666;2022-12-18T00:11:51;10.73;;;3.88;;
33987;SDS011;37428;53.580;-1.666;2022-12-18T00:14:56;8.85;;;3.80;;
33987;SDS011;37428;53.580;-1.666;2022-12-18T00:18:17;4.38;;;2.67;;
33987;SDS011;37428;53.580;-1.666;2022-12-18T00:21:20;6.00;;;3.80;;
33987;SDS011;37428;53.580;-1.666;2022-12-18T00:24:23;4.90;;;2.55;;
33987;SDS011;37428;53.580;-1.666;2022-12-18T00:27:56;4.03;;;2.78;;
33987;SDS011;37428;53.580;-1.666;2022-12-18T00:30:54;6.43;;;2.30;;
33987;SDS011;37428;53.580;-1.666;2022-12-18T00:34:17;4.20;;;2.67;;
33987;SDS011;37428;53.580;-1.666;2022-12-18T00:37:20;3.63;;;2.55;;
33987;SDS011;37428;53.580;-1.666;2022-12-18T00:40:23;5.00;;;2.92;;
33987;SDS011;37428;53.580;-1.666;2022-12-18T00:43:28;6.13;;;2.83;;
33987;SDS011;37428;53.580;-1.666;2022-12-18T00:46:31;5.65;;;2.65;;
33987;SDS011;37428;53.580;-1.666;2022-12-18T00:49:34;6.35;;;4.32;;
33987;SDS011;37428;53.580;-1.666;2022-12-18T00:55:42;5.95;;;3.50;;
33987;SDS011;37428;53.580;-1.666;2022-12-18T00:58:45;6.57;;;3.60;;
33987;SDS011;37428;53.580;-1.666;2022-12-18T01:01:49;8.07;;;4.18;;
33987;SDS011;37428;53.580;-1.666;2022-12-18T01:04:51;6.63;;;3.72;;
33987;SDS011;37428;53.580;-1.666;2022-12-18T01:07:54;10.20;;;5.38;;
33987;SDS011;37428;53.580;-1.666;2022-12-18T01:10:59;12.75;;;4.07;;
33987;SDS011;37428;53.580;-1.666;2022-12-18T01:14:02;6.35;;;3.25;;
33987;SDS011;37428;53.580;-1.666;2022-12-18T01:17:14;8.98;;;5.53;;
33987;SDS011;37428;53.580;-1.666;2022-12-18T01:20:16;8.27;;;5.00;;
33987;SDS011;37428;53.580;-1.666;2022-12-18T01:23:19;6.55;;;5.10;;
33987;SDS011;37428;53.580;-1.666;2022-12-18T01:26:21;5.03;;;4.53;;
33987;SDS011;37428;53.580;-1.666;2022-12-18T01:29:27;7.55;;;3.60;;
33987;SDS011;37428;53.580;-1.666;2022-12-18T01:32:31;9.57;;;4.38;;
33987;SDS011;37428;53.580;-1.666;2022-12-18T01:35:39;5.93;;;4.00;;
33987;SDS011;37428;53.580;-1.666;2022-12-18T01:38:43;6.80;;;4.03;;
33987;SDS011;37428;53.580;-1.666;2022-12-18T01:41:45;7.53;;;4.18;;
33987;SDS011;37428;53.580;-1.666;2022-12-18T01:45:05;6.18;;;3.88;;
33987;SDS011;37428;53.580;-1.666;2022-12-18T01:48:24;5.88;;;3.55;;
33987;SDS011;37428;53.580;-1.666;2022-12-18T01:51:27;4.85;;;3.78;;
33987;SDS011;37428;53.580;-1.666;2022-12-18T01:54:32;6.68;;;3.47;;
33987;SDS011;37428;53.580;-1.666;2022-12-18T01:57:34;5.78;;;4.00;;
33987;SDS011;37428;53.580;-1.666;2022-12-18T02:00:38;8.93;;;4.00;;
33987;SDS011;37428;53.580;-1.666;2022-12-18T02:03:42;7.57;;;5.15;;
33987;SDS011;37428;53.580;-1.666;2022-12-18T02:06:45;5.07;;;3.55;;
33987;SDS011;37428;53.580;-1.666;2022-12-18T02:09:54;8.95;;;3.58;;
33987;SDS011;37428;53.580;-1.666;2022-12-18T02:13:02;4.00;;;2.67;;
33987;SDS011;37428;53.580;-1.666;2022-12-18T02:16:15;7.97;;;3.40;;
33987;SDS011;37428;53.580;-1.666;2022-12-18T02:19:42;6.00;;;3.47;;
33987;SDS011;37428;53.580;-1.666;2022-12-18T02:22:53;4.25;;;3.20;;
33987;SDS011;37428;53.580;-1.666;2022-12-18T02:26:13;5.20;;;3.50;;
33987;SDS011;37428;53.580;-1.666;2022-12-18T02:29:22;6.18;;;3.97;;
33987;SDS011;37428;53.580;-1.666;2022-12-18T02:32:29;8.27;;;4.15;;
33987;SDS011;37428;53.580;-1.666;2022-12-18T02:35:37;5.72;;;3.50;;
33987;SDS011;37428;53.580;-1.666;2022-12-18T02:38:42;3.00;;;2.17;;
33987;SDS011;37428;53.580;-1.666;2022-12-18T02:41:48;5.55;;;3.35;;
33987;SDS011;37428;53.580;-1.666;2022-12-18T02:44:54;3.42;;;2.80;;
33987;SDS011;37428;53.580;-1.666;2022-12-18T02:47:56;5.40;;;3.00;;
33987;SDS011;37428;53.580;-1.666;2022-12-18T02:50:59;6.15;;;3.35;;
33987;SDS011;37428;53.580;-1.666;2022-12-18T02:54:10;5.05;;;3.08;;
33987;SDS011;37428;53.580;-1.666;2022-12-18T02:57:27;5.75;;;2.90;;
33987;SDS011;37428;53.580;-1.666;2022-12-18T03:00:36;4.47;;;2.83;;
33987;SDS011;37428;53.580;-1.666;2022-12-18T03:03:44;6.30;;;2.70;;
33987;SDS011;37428;53.580;-1.666;2022-12-18T03:06:49;6.18;;;2.75;;
33987;SDS011;37428;53.580;-1.666;2022-12-18T03:09:54;5.82;;;2.75;;
33987;SDS011;37428;53.580;-1.666;2022-12-18T03:13:02;5.47;;;3.63;;
33987;SDS011;37428;53.580;-1.666;2022-12-18T03:16:07;4.07;;;2.80;;
33987;SDS011;37428;53.580;-1.666;2022-12-18T03:19:14;5.63;;;3.88;;
33987;SDS011;37428;53.580;-1.666;2022-12-18T03:22:19;6.88;;;4.20;;
33987;SDS011;37428;53.580;-1.666;2022-12-18T03:25:23;5.53;;;4.63;;
33987;SDS011;37428;53.580;-1.666;2022-12-18T03:28:30;8.88;;;5.30;;
33987;SDS011;37428;53.580;-1.666;2022-12-18T03:31:35;10.20;;;5.25;;
33987;SDS011;37428;53.580;-1.666;2022-12-18T03:34:41;7.53;;;4.68;;
33987;SDS011;37428;53.580;-1.666;2022-12-18T03:37:45;8.63;;;5.80;;
33987;SDS011;37428;53.580;-1.666;2022-12-18T03:40:50;6.40;;;4.00;;
33987;SDS011;37428;53.580;-1.666;2022-12-18T03:47:09;12.27;;;6.80;;
33987;SDS011;37428;53.580;-1.666;2022-12-18T03:50:17;10.90;;;7.03;;
33987;SDS011;37428;53.580;-1.666;2022-12-18T03:53:25;10.65;;;5.97;;
33987;SDS011;37428;53.580;-1.666;2022-12-18T03:56:35;12.27;;;7.10;;
33987;SDS011;37428;53.580;-1.666;2022-12-18T03:59:43;9.60;;;6.15;;
33987;SDS011;37428;53.580;-1.666;2022-12-18T04:02:47;8.95;;;6.45;;
33987;SDS011;37428;53.580;-1.666;2022-12-18T04:05:52;9.52;;;5.55;;
33987;SDS011;37428;53.580;-1.666;2022-12-18T04:08:57;7.57;;;5.30;;
33987;SDS011;37428;53.580;-1.666;2022-12-18T04:11:59;6.22;;;4.22;;
33987;SDS011;37428;53.580;-1.666;2022-12-18T04:15:03;5.13;;;3.67;;
33987;SDS011;37428;53.580;-1.666;2022-12-18T04:18:07;7.20;;;3.58;;
33987;SDS011;37428;53.580;-1.666;2022-12-18T04:21:09;4.80;;;4.22;;
33987;SDS011;37428;53.580;-1.666;2022-12-18T04:24:12;7.25;;;3.20;;
33987;SDS011;37428;53.580;-1.666;2022-12-18T04:27:14;6.78;;;3.80;;
33987;SDS011;37428;53.580;-1.666;2022-12-18T04:30:17;5.00;;;3.83;;
33987;SDS011;37428;53.580;-1.666;2022-12-18T04:33:19;5.45;;;4.10;;
33987;SDS011;37428;53.580;-1.666;2022-12-18T04:36:21;7.40;;;3.97;;
33987;SDS011;37428;53.580;-1.666;2022-12-18T04:39:24;4.57;;;4.15;;
33987;SDS011;37428;53.580;-1.666;2022-12-18T04:42:26;6.25;;;4.47;;
33987;SDS011;37428;53.580;-1.666;2022-12-18T04:45:29;8.98;;;5.28;;
33987;SDS011;37428;53.580;-1.666;2022-12-18T04:48:32;12.57;;;5.43;;
33987;SDS011;37428;53.580;-1.666;2022-12-18T04:51:35;9.50;;;5.63;;
33987;SDS011;37428;53.580;-1.666;2022-12-18T04:54:37;11.77;;;6.18;;
33987;SDS011;37428;53.580;-1.666;2022-12-18T04:57:39;8.15;;;6.07;;
33987;SDS011;37428;53.580;-1.666;2022-12-18T05:00:43;10.35;;;6.05;;
33987;SDS011;37428;53.580;-1.666;2022-12-18T05:03:45;9.15;;;6.43;;
33987;SDS011;37428;53.580;-1.666;2022-12-18T05:06:47;8.73;;;5.75;;
33987;SDS011;37428;53.580;-1.666;2022-12-18T05:09:49;7.68;;;5.70;;
33987;SDS011;37428;53.580;-1.666;2022-12-18T05:12:52;7.68;;;5.50;;
33987;SDS011;37428;53.580;-1.666;2022-12-18T05:16:01;8.35;;;5.97;;
33987;SDS011;37428;53.580;-1.666;2022-12-18T05:19:04;11.57;;;6.63;;
33987;SDS011;37428;53.580;-1.666;2022-12-18T05:22:06;11.50;;;6.63;;
33987;SDS011;37428;53.580;-1.666;2022-12-18T05:28:10;11.38;;;7.30;;
33987;SDS011;37428;53.580;-1.666;2022-12-18T05:31:14;8.20;;;5.70;;
33987;SDS011;37428;53.580;-1.666;2022-12-18T05:34:16;12.73;;;8.38;;
33987;SDS011;37428;53.580;-1.666;2022-12-18T05:37:18;13.07;;;8.25;;
33987;SDS011;37428;53.580;-1.666;2022-12-18T05:40:20;9.93;;;6.82;;
33987;SDS011;37428;53.580;-1.666;2022-12-18T05:43:23;9.77;;;7.55;;
33987;SDS011;37428;53.580;-1.666;2022-12-18T05:46:30;13.65;;;10.32;;
33987;SDS011;37428;53.580;-1.666;2022-12-18T05:49:33;19.58;;;10.50;;
33987;SDS011;37428;53.580;-1.666;2022-12-18T05:52:35;17.77;;;10.65;;
33987;SDS011;37428;53.580;-1.666;2022-12-18T05:55:37;20.23;;;12.30;;
33987;SDS011;37428;53.580;-1.666;2022-12-18T05:58:41;16.20;;;11.02;;
33987;SDS011;37428;53.580;-1.666;2022-12-18T06:04:47;22.88;;;15.50;;
33987;SDS011;37428;53.580;-1.666;2022-12-18T06:07:50;24.25;;;15.32;;
33987;SDS011;37428;53.580;-1.666;2022-12-18T06:10:52;27.02;;;15.82;;
33987;SDS011;37428;53.580;-1.666;2022-12-18T06:13:55;29.33;;;15.27;;
33987;SDS011;37428;53.580;-1.666;2022-12-18T06:16:59;26.35;;;14.68;;
33987;SDS011;37428;53.580;-1.666;2022-12-18T06:20:01;28.88;;;17.20;;
33987;SDS011;37428;53.580;-1.666;2022-12-18T06:23:04;34.00;;;18.50;;
33987;SDS011;37428;53.580;-1.666;2022-12-18T06:26:07;24.58;;;15.45;;
33987;SDS011;37428;53.580;-1.666;2022-12-18T06:29:10;22.13;;;15.57;;
33987;SDS011;37428;53.580;-1.666;2022-12-18T06:32:14;23.25;;;15.43;;
33987;SDS011;37428;53.580;-1.666;2022-12-18T06:35:16;22.50;;;14.73;;
33987;SDS011;37428;53.580;-1.666;2022-12-18T06:38:19;31.48;;;17.45;;
33987;SDS011;37428;53.580;-1.666;2022-12-18T06:41:21;29.10;;;16.05;;
33987;SDS011;37428;53.580;-1.666;2022-12-18T06:44:23;28.58;;;16.58;;
33987;SDS011;37428;53.580;-1.666;2022-12-18T06:47:27;33.85;;;17.55;;
33987;SDS011;37428;53.580;-1.666;2022-12-18T06:50:29;26.02;;;17.73;;
33987;SDS011;37428;53.580;-1.666;2022-12-18T06:53:32;25.83;;;17.27;;
33987;SDS011;37428;53.580;-1.666;2022-12-18T06:56:34;31.13;;;18.67;;
33987;SDS011;37428;53.580;-1.666;2022-12-18T07:02:40;30.60;;;18.38;;
33987;SDS011;37428;53.580;-1.666;2022-12-18T07:05:42;34.60;;;19.52;;
33987;SDS011;37428;53.580;-1.666;2022-12-18T07:08:45;33.22;;;19.83;;
33987;SDS011;37428;53.580;-1.666;2022-12-18T07:11:48;24.35;;;13.98;;
33987;SDS011;37428;53.580;-1.666;2022-12-18T07:14:50;33.03;;;17.88;;
33987;SDS011;37428;53.580;-1.666;2022-12-18T07:17:54;37.67;;;20.77;;
33987;SDS011;37428;53.580;-1.666;2022-12-18T07:20:56;36.78;;;20.52;;
33987;SDS011;37428;53.580;-1.666;2022-12-18T07:23:58;41.50;;;23.48;;
33987;SDS011;37428;53.580;-1.666;2022-12-18T07:27:00;38.80;;;22.88;;
33987;SDS011;37428;53.580;-1.666;2022-12-18T07:30:03;40.60;;;24.05;;
33987;SDS011;37428;53.580;-1.666;2022-12-18T07:33:07;39.65;;;22.42;;
33987;SDS011;37428;53.580;-1.666;2022-12-18T07:36:10;41.63;;;23.45;;
33987;SDS011;37428;53.580;-1.666;2022-12-18T07:39:13;38.03;;;21.88;;
33987;SDS011;37428;53.580;-1.666;2022-12-18T07:45:32;46.00;;;25.90;;
33987;SDS011;37428;53.580;-1.666;2022-12-18T07:48:35;36.33;;;21.80;;
33987;SDS011;37428;53.580;-1.666;2022-12-18T07:51:38;51.40;;;29.20;;
33987;SDS011;37428;53.580;-1.666;2022-12-18T07:54:40;57.30;;;29.70;;
33987;SDS011;37428;53.580;-1.666;2022-12-18T08:00:44;49.63;;;29.00;;
33987;SDS011;37428;53.580;-1.666;2022-12-18T08:03:48;57.33;;;31.05;;
33987;SDS011;37428;53.580;-1.666;2022-12-18T08:06:50;52.20;;;29.70;;
33987;SDS011;37428;53.580;-1.666;2022-12-18T08:09:52;51.13;;;29.85;;
33987;SDS011;37428;53.580;-1.666;2022-12-18T08:12:54;54.20;;;29.20;;
33987;SDS011;37428;53.580;-1.666;2022-12-18T08:15:57;58.20;;;31.70;;
33987;SDS011;37428;53.580;-1.666;2022-12-18T08:19:01;58.67;;;32.08;;
33987;SDS011;37428;53.580;-1.666;2022-12-18T08:22:04;49.17;;;23.58;;
33987;SDS011;37428;53.580;-1.666;2022-12-18T08:25:06;56.75;;;32.10;;
33987;SDS011;37428;53.580;-1.666;2022-12-18T08:28:09;54.17;;;29.13;;
33987;SDS011;37428;53.580;-1.666;2022-12-18T08:31:11;55.95;;;31.17;;
33987;SDS011;37428;53.580;-1.666;2022-12-18T08:34:15;45.83;;;22.00;;
33987;SDS011;37428;53.580;-1.666;2022-12-18T08:37:17;54.42;;;31.23;;
33987;SDS011;37428;53.580;-1.666;2022-12-18T08:43:21;56.55;;;31.25;;
33987;SDS011;37428;53.580;-1.666;2022-12-18T08:46:41;71.22;;;39.03;;
33987;SDS011;37428;53.580;-1.666;2022-12-18T08:49:45;112.05;;;58.17;;
33987;SDS011;37428;53.580;-1.666;2022-12-18T08:52:48;55.30;;;27.80;;
33987;SDS011;37428;53.580;-1.666;2022-12-18T08:55:50;63.85;;;32.63;;
33987;SDS011;37428;53.580;-1.666;2022-12-18T08:58:52;58.17;;;33.75;;
33987;SDS011;37428;53.580;-1.666;2022-12-18T09:01:55;54.55;;;30.30;;
33987;SDS011;37428;53.580;-1.666;2022-12-18T09:04:59;61.45;;;32.50;;
33987;SDS011;37428;53.580;-1.666;2022-12-18T09:08:01;57.92;;;30.00;;
33987;SDS011;37428;53.580;-1.666;2022-12-18T09:11:03;53.92;;;27.55;;
33987;SDS011;37428;53.580;-1.666;2022-12-18T09:14:05;58.88;;;32.88;;
33987;SDS011;37428;53.580;-1.666;2022-12-18T09:17:07;63.22;;;34.47;;
33987;SDS011;37428;53.580;-1.666;2022-12-18T09:20:11;49.95;;;26.77;;
33987;SDS011;37428;53.580;-1.666;2022-12-18T09:23:13;60.05;;;30.63;;
33987;SDS011;37428;53.580;-1.666;2022-12-18T09:26:15;57.00;;;31.73;;
33987;SDS011;37428;53.580;-1.666;2022-12-18T09:29:17;54.65;;;27.48;;
33987;SDS011;37428;53.580;-1.666;2022-12-18T09:32:19;59.33;;;31.98;;
33987;SDS011;37428;53.580;-1.666;2022-12-18T09:35:23;54.05;;;28.20;;
33987;SDS011;37428;53.580;-1.666;2022-12-18T09:38:25;51.15;;;25.83;;
33987;SDS011;37428;53.580;-1.666;2022-12-18T09:41:36;59.17;;;30.92;;
33987;SDS011;37428;53.580;-1.666;2022-12-18T09:44:43;56.20;;;28.15;;
33987;SDS011;37428;53.580;-1.666;2022-12-18T09:47:50;57.47;;;30.27;;
33987;SDS011;37428;53.580;-1.666;2022-12-18T09:50:57;53.08;;;28.23;;
33987;SDS011;37428;53.580;-1.666;2022-12-18T09:54:06;52.70;;;25.85;;
33987;SDS011;37428;53.580;-1.666;2022-12-18T09:57:15;51.58;;;26.80;;
33987;SDS011;37428;53.580;-1.666;2022-12-18T10:00:21;56.42;;;28.83;;
33987;SDS011;37428;53.580;-1.666;2022-12-18T10:03:25;58.55;;;28.60;;
33987;SDS011;37428;53.580;-1.666;2022-12-18T10:06:31;45.92;;;22.88;;
33987;SDS011;37428;53.580;-1.666;2022-12-18T10:09:40;46.22;;;24.13;;
33987;SDS011;37428;53.580;-1.666;2022-12-18T10:13:05;44.45;;;23.08;;
33987;SDS011;37428;53.580;-1.666;2022-12-18T10:16:22;47.83;;;23.55;;
33987;SDS011;37428;53.580;-1.666;2022-12-18T10:19:41;35.72;;;19.48;;
33987;SDS011;37428;53.580;-1.666;2022-12-18T10:22:57;47.95;;;25.20;;
33987;SDS011;37428;53.580;-1.666;2022-12-18T10:26:24;41.40;;;19.20;;
33987;SDS011;37428;53.580;-1.666;2022-12-18T10:30:04;38.50;;;20.17;;
33987;SDS011;37428;53.580;-1.666;2022-12-18T10:33:28;46.78;;;21.88;;
33987;SDS011;37428;53.580;-1.666;2022-12-18T10:40:04;39.20;;;19.08;;
33987;SDS011;37428;53.580;-1.666;2022-12-18T10:43:27;35.13;;;18.88;;
33987;SDS011;37428;53.580;-1.666;2022-12-18T10:46:36;44.75;;;22.75;;
33987;SDS011;37428;53.580;-1.666;2022-12-18T10:49:40;30.88;;;15.85;;
33987;SDS011;37428;53.580;-1.666;2022-12-18T10:52:54;43.42;;;21.58;;
33987;SDS011;37428;53.580;-1.666;2022-12-18T10:55:59;35.55;;;17.08;;
33987;SDS011;37428;53.580;-1.666;2022-12-18T10:59:04;46.33;;;23.60;;
33987;SDS011;37428;53.580;-1.666;2022-12-18T11:02:10;45.78;;;23.25;;
33987;SDS011;37428;53.580;-1.666;2022-12-18T11:05:30;34.45;;;16.63;;
33987;SDS011;37428;53.580;-1.666;2022-12-18T11:08:38;48.90;;;25.50;;
33987;SDS011;37428;53.580;-1.666;2022-12-18T11:11:50;51.15;;;25.05;;
33987;SDS011;37428;53.580;-1.666;2022-12-18T11:15:03;63.72;;;31.02;;
33987;SDS011;37428;53.580;-1.666;2022-12-18T11:18:15;65.85;;;30.40;;
33987;SDS011;37428;53.580;-1.666;2022-12-18T11:21:21;45.78;;;22.77;;
33987;SDS011;37428;53.580;-1.666;2022-12-18T11:24:24;49.00;;;23.75;;
33987;SDS011;37428;53.580;-1.666;2022-12-18T11:27:32;27.85;;;15.52;;
33987;SDS011;37428;53.580;-1.666;2022-12-18T11:30:35;51.30;;;29.08;;
33987;SDS011;37428;53.580;-1.666;2022-12-18T11:33:38;43.08;;;24.33;;
33987;SDS011;37428;53.580;-1.666;2022-12-18T11:36:44;63.53;;;27.90;;
33987;SDS011;37428;53.580;-1.666;2022-12-18T11:39:49;58.38;;;32.78;;
33987;SDS011;37428;53.580;-1.666;2022-12-18T11:42:59;47.28;;;26.35;;
33987;SDS011;37428;53.580;-1.666;2022-12-18T11:46:08;37.58;;;20.55;;
33987;SDS011;37428;53.580;-1.666;2022-12-18T11:49:15;39.95;;;17.48;;
33987;SDS011;37428;53.580;-1.666;2022-12-18T11:52:23;25.17;;;12.93;;
33987;SDS011;37428;53.580;-1.666;2022-12-18T11:55:30;34.28;;;18.95;;
33987;SDS011;37428;53.580;-1.666;2022-12-18T11:58:42;44.90;;;24.30;;
33987;SDS011;37428;53.580;-1.666;2022-12-18T12:01:50;34.92;;;18.33;;
33987;SDS011;37428;53.580;-1.666;2022-12-18T12:05:00;45.85;;;22.40;;
33987;SDS011;37428;53.580;-1.666;2022-12-18T12:08:19;37.95;;;19.70;;
33987;SDS011;37428;53.580;-1.666;2022-12-18T12:11:29;36.97;;;18.80;;
33987;SDS011;37428;53.580;-1.666;2022-12-18T12:14:47;41.38;;;22.05;;
33987;SDS011;37428;53.580;-1.666;2022-12-18T12:17:55;46.88;;;23.30;;
33987;SDS011;37428;53.580;-1.666;2022-12-18T12:21:07;29.00;;;16.08;;
33987;SDS011;37428;53.580;-1.666;2022-12-18T12:24:20;42.17;;;19.95;;
33987;SDS011;37428;53.580;-1.666;2022-12-18T12:27:34;41.75;;;19.80;;
33987;SDS011;37428;53.580;-1.666;2022-12-18T12:30:47;33.80;;;18.58;;
33987;SDS011;37428;53.580;-1.666;2022-12-18T12:34:00;36.15;;;18.52;;
33987;SDS011;37428;53.580;-1.666;2022-12-18T12:37:15;31.83;;;13.95;;
33987;SDS011;37428;53.580;-1.666;2022-12-18T12:40:27;34.30;;;18.67;;
33987;SDS011;37428;53.580;-1.666;2022-12-18T12:43:33;34.88;;;18.88;;
33987;SDS011;37428;53.580;-1.666;2022-12-18T12:46:41;32.40;;;17.60;;
33987;SDS011;37428;53.580;-1.666;2022-12-18T12:49:44;42.20;;;22.92;;
33987;SDS011;37428;53.580;-1.666;2022-12-18T12:52:49;48.08;;;25.58;;
33987;SDS011;37428;53.580;-1.666;2022-12-18T12:55:54;34.97;;;17.60;;
33987;SDS011;37428;53.580;-1.666;2022-12-18T12:58:59;45.28;;;24.50;;
33987;SDS011;37428;53.580;-1.666;2022-12-18T13:02:14;46.72;;;25.00;;
33987;SDS011;37428;53.580;-1.666;2022-12-18T13:05:23;46.28;;;23.23;;
33987;SDS011;37428;53.580;-1.666;2022-12-18T13:08:32;48.63;;;24.73;;
33987;SDS011;37428;53.580;-1.666;2022-12-18T13:11:52;37.88;;;21.08;;
33987;SDS011;37428;53.580;-1.666;2022-12-18T13:15:12;32.28;;;17.60;;
33987;SDS011;37428;53.580;-1.666;2022-12-18T13:18:23;44.10;;;22.27;;
33987;SDS011;37428;53.580;-1.666;2022-12-18T13:21:58;36.25;;;19.17;;
33987;SDS011;37428;53.580;-1.666;2022-12-18T13:24:54;42.50;;;20.92;;
33987;SDS011;37428;53.580;-1.666;2022-12-18T13:28:06;34.40;;;16.10;;
33987;SDS011;37428;53.580;-1.666;2022-12-18T13:31:11;47.05;;;24.95;;
33987;SDS011;37428;53.580;-1.666;2022-12-18T13:37:39;43.97;;;23.88;;
33987;SDS011;37428;53.580;-1.666;2022-12-18T13:40:53;52.28;;;24.10;;
33987;SDS011;37428;53.580;-1.666;2022-12-18T13:43:58;48.05;;;25.08;;
33987;SDS011;37428;53.580;-1.666;2022-12-18T13:47:25;38.70;;;20.98;;
33987;SDS011;37428;53.580;-1.666;2022-12-18T13:50:33;32.80;;;17.42;;
33987;SDS011;37428;53.580;-1.666;2022-12-18T13:53:37;42.67;;;19.45;;
33987;SDS011;37428;53.580;-1.666;2022-12-18T13:56:45;32.05;;;16.40;;
33987;SDS011;37428;53.580;-1.666;2022-12-18T13:59:48;49.85;;;24.77;;
33987;SDS011;37428;53.580;-1.666;2022-12-18T14:02:50;54.22;;;24.30;;
33987;SDS011;37428;53.580;-1.666;2022-12-18T14:05:58;42.47;;;18.67;;
33987;SDS011;37428;53.580;-1.666;2022-12-18T14:09:04;35.15;;;16.75;;
33987;SDS011;37428;53.580;-1.666;2022-12-18T14:12:11;27.50;;;17.90;;
33987;SDS011;37428;53.580;-1.666;2022-12-18T14:15:35;31.10;;;16.13;;
33987;SDS011;37428;53.580;-1.666;2022-12-18T14:18:42;41.45;;;20.33;;
33987;SDS011;37428;53.580;-1.666;2022-12-18T14:21:48;50.88;;;21.50;;
33987;SDS011;37428;53.580;-1.666;2022-12-18T14:25:05;35.40;;;19.60;;
33987;SDS011;37428;53.580;-1.666;2022-12-18T14:28:18;42.60;;;21.80;;
33987;SDS011;37428;53.580;-1.666;2022-12-18T14:31:22;43.50;;;23.10;;
33987;SDS011;37428;53.580;-1.666;2022-12-18T14:34:26;54.55;;;26.02;;
33987;SDS011;37428;53.580;-1.666;2022-12-18T14:37:30;49.72;;;25.23;;
33987;SDS011;37428;53.580;-1.666;2022-12-18T14:40:54;36.20;;;18.83;;
33987;SDS011;37428;53.580;-1.666;2022-12-18T14:44:18;52.55;;;26.83;;
33987;SDS011;37428;53.580;-1.666;2022-12-18T14:47:28;51.92;;;25.88;;
33987;SDS011;37428;53.580;-1.666;2022-12-18T14:51:06;41.25;;;21.92;;
33987;SDS011;37428;53.580;-1.666;2022-12-18T14:54:24;56.05;;;26.45;;
33987;SDS011;37428;53.580;-1.666;2022-12-18T14:57:32;61.83;;;28.08;;
33987;SDS011;37428;53.580;-1.666;2022-12-18T15:00:44;46.35;;;23.20;;
33987;SDS011;37428;53.580;-1.666;2022-12-18T15:03:53;44.80;;;21.60;;
33987;SDS011;37428;53.580;-1.666;2022-12-18T15:07:11;48.83;;;25.85;;
33987;SDS011;37428;53.580;-1.666;2022-12-18T15:10:23;54.65;;;29.70;;
33987;SDS011;37428;53.580;-1.666;2022-12-18T15:13:32;23.65;;;13.48;;
33987;SDS011;37428;53.580;-1.666;2022-12-18T15:16:35;43.47;;;24.00;;
33987;SDS011;37428;53.580;-1.666;2022-12-18T15:19:42;49.55;;;27.23;;
33987;SDS011;37428;53.580;-1.666;2022-12-18T15:22:53;50.50;;;25.25;;
33987;SDS011;37428;53.580;-1.666;2022-12-18T15:26:01;58.40;;;28.48;;
33987;SDS011;37428;53.580;-1.666;2022-12-18T15:29:18;40.97;;;23.42;;
33987;SDS011;37428;53.580;-1.666;2022-12-18T15:32:26;64.68;;;32.97;;
33987;SDS011;37428;53.580;-1.666;2022-12-18T15:35:28;38.22;;;22.45;;
33987;SDS011;37428;53.580;-1.666;2022-12-18T15:38:36;28.55;;;15.82;;
33987;SDS011;37428;53.580;-1.666;2022-12-18T15:41:59;35.45;;;20.05;;
33987;SDS011;37428;53.580;-1.666;2022-12-18T15:45:29;22.42;;;15.23;;
33987;SDS011;37428;53.580;-1.666;2022-12-18T15:48:37;40.33;;;22.20;;
33987;SDS011;37428;53.580;-1.666;2022-12-18T15:51:41;23.75;;;15.25;;
33987;SDS011;37428;53.580;-1.666;2022-12-18T15:54:54;25.73;;;17.75;;
33987;SDS011;37428;53.580;-1.666;2022-12-18T15:58:17;20.77;;;13.45;;
33987;SDS011;37428;53.580;-1.666;2022-12-18T16:01:29;23.92;;;15.90;;
33987;SDS011;37428;53.580;-1.666;2022-12-18T16:04:35;35.95;;;21.83;;
33987;SDS011;37428;53.580;-1.666;2022-12-18T16:07:40;28.33;;;18.92;;
33987;SDS011;37428;53.580;-1.666;2022-12-18T16:10:51;28.55;;;18.25;;
33987;SDS011;37428;53.580;-1.666;2022-12-18T16:14:00;46.13;;;25.25;;
33987;SDS011;37428;53.580;-1.666;2022-12-18T16:17:10;26.60;;;14.80;;
33987;SDS011;37428;53.580;-1.666;2022-12-18T16:20:14;33.90;;;18.60;;
33987;SDS011;37428;53.580;-1.666;2022-12-18T16:23:19;47.42;;;25.92;;
33987;SDS011;37428;53.580;-1.666;2022-12-18T16:26:35;60.35;;;29.25;;
33987;SDS011;37428;53.580;-1.666;2022-12-18T16:29:39;58.08;;;28.20;;
33987;SDS011;37428;53.580;-1.666;2022-12-18T16:32:47;63.95;;;31.60;;
33987;SDS011;37428;53.580;-1.666;2022-12-18T16:35:52;36.83;;;20.73;;
33987;SDS011;37428;53.580;-1.666;2022-12-18T16:39:04;40.42;;;21.77;;
33987;SDS011;37428;53.580;-1.666;2022-12-18T16:42:13;31.10;;;20.27;;
33987;SDS011;37428;53.580;-1.666;2022-12-18T16:45:22;32.90;;;18.38;;
33987;SDS011;37428;53.580;-1.666;2022-12-18T16:48:24;33.15;;;20.67;;
33987;SDS011;37428;53.580;-1.666;2022-12-18T16:51:34;37.65;;;23.48;;
33987;SDS011;37428;53.580;-1.666;2022-12-18T16:54:41;43.67;;;25.05;;
33987;SDS011;37428;53.580;-1.666;2022-12-18T16:58:04;34.33;;;22.55;;
33987;SDS011;37428;53.580;-1.666;2022-12-18T17:01:09;34.78;;;21.95;;
33987;SDS011;37428;53.580;-1.666;2022-12-18T17:04:12;39.55;;;24.58;;
33987;SDS011;37428;53.580;-1.666;2022-12-18T17:07:22;49.17;;;31.65;;
33987;SDS011;37428;53.580;-1.666;2022-12-18T17:10:35;64.00;;;36.17;;
33987;SDS011;37428;53.580;-1.666;2022-12-18T17:13:52;65.88;;;33.45;;
33987;SDS011;37428;53.580;-1.666;2022-12-18T17:17:04;91.10;;;43.80;;
33987;SDS011;37428;53.580;-1.666;2022-12-18T17:20:15;81.55;;;42.47;;
33987;SDS011;37428;53.580;-1.666;2022-12-18T17:23:39;32.35;;;19.92;;
33987;SDS011;37428;53.580;-1.666;2022-12-18T17:26:42;43.97;;;27.70;;
33987;SDS011;37428;53.580;-1.666;2022-12-18T17:29:58;38.78;;;22.20;;
33987;SDS011;37428;53.580;-1.666;2022-12-18T17:33:08;35.42;;;22.95;;
33987;SDS011;37428;53.580;-1.666;2022-12-18T17:36:10;31.70;;;22.15;;
33987;SDS011;37428;53.580;-1.666;2022-12-18T17:39:16;43.70;;;26.27;;
33987;SDS011;37428;53.580;-1.666;2022-12-18T17:42:23;36.22;;;22.17;;
33987;SDS011;37428;53.580;-1.666;2022-12-18T17:45:29;34.58;;;22.10;;
33987;SDS011;37428;53.580;-1.666;2022-12-18T17:48:36;33.78;;;21.60;;
33987;SDS011;37428;53.580;-1.666;2022-12-18T17:51:42;32.90;;;20.33;;
33987;SDS011;37428;53.580;-1.666;2022-12-18T17:54:46;47.47;;;26.42;;
33987;SDS011;37428;53.580;-1.666;2022-12-18T17:57:53;57.47;;;32.50;;
33987;SDS011;37428;53.580;-1.666;2022-12-18T18:01:05;54.17;;;29.10;;
33987;SDS011;37428;53.580;-1.666;2022-12-18T18:04:12;83.85;;;43.15;;
33987;SDS011;37428;53.580;-1.666;2022-12-18T18:07:19;52.35;;;30.15;;
33987;SDS011;37428;53.580;-1.666;2022-12-18T18:10:29;56.65;;;31.48;;
33987;SDS011;37428;53.580;-1.666;2022-12-18T18:13:35;88.20;;;40.38;;
33987;SDS011;37428;53.580;-1.666;2022-12-18T18:16:55;55.72;;;28.55;;
33987;SDS011;37428;53.580;-1.666;2022-12-18T18:20:00;34.22;;;20.40;;
33987;SDS011;37428;53.580;-1.666;2022-12-18T18:23:08;21.23;;;14.43;;
33987;SDS011;37428;53.580;-1.666;2022-12-18T18:26:10;26.48;;;18.80;;
33987;SDS011;37428;53.580;-1.666;2022-12-18T18:29:15;28.45;;;17.45;;
33987;SDS011;37428;53.580;-1.666;2022-12-18T18:32:22;25.17;;;18.40;;
33987;SDS011;37428;53.580;-1.666;2022-12-18T18:38:48;20.02;;;12.15;;
33987;SDS011;37428;53.580;-1.666;2022-12-18T18:41:50;32.75;;;20.42;;
33987;SDS011;37428;53.580;-1.666;2022-12-18T18:44:54;19.77;;;12.98;;